Urb Ferry Barranca, Puerto Rico
Current Conditions -  °F | °C
As of 6:50 PM on Thursday 25 Dec 2014 (Local Time) from TJBQ Reporting Station
Scattered Clouds Scattered Clouds  
Wind Chill: 77°   Ceiling: Unl
Heat Index: 79°   Visibility: 10mi
Dew Point: 68°   Wind: 17mph
Humidity: 74%   Direction: 70°ENE
Pressure: 30.07"   Gusts: NA
Location:  18.0152°N, 66.6246°W
Report Text: TJBQ 252250Z 07015KT 10SM SCT023 SCT030 SCT035 25/20 A3007 RMK RWY08 ATIS B
Loading
Personal Weather Stations






























Interactive Weather Map New forecast layout! Learn more

10-Day Weather Forecast

Advertisements
Track Severe Weather on mobile